Time;durP1;ratioP1;P1;durP2;ratioP2;P2;SDS_P1;SDS_P2;PMS_P1;PMS_P2;Temp;Humidity;BMP_temperature;BMP_pressure;BME280_temperature;BME280_humidity;BME280_pressure;Samples;Min_cycle;Max_cycle;Signal;HPM_P1;HPM_P2
2023/11/06 00:02:09;;;;;;;2.70;0.88;;;;;;;10.42;49.30;99086.84;4988771;28;20065;-85
2023/11/06 00:04:37;;;;;;;2.55;0.77;;;;;;;10.41;48.96;99096.91;4987443;28;20058;-84
2023/11/06 00:07:05;;;;;;;3.30;1.20;;;;;;;10.43;48.73;99092.13;5002637;28;20090;-85
2023/11/06 00:09:35;;;;;;;2.80;1.30;;;;;;;10.44;49.15;99102.03;5011492;28;20050;-83
2023/11/06 00:12:03;;;;;;;3.05;1.10;;;;;;;10.44;48.87;99101.19;5013862;28;20040;-86
2023/11/06 00:14:31;;;;;;;3.75;1.13;;;;;;;10.44;49.11;99093.84;4992243;28;20077;-85
2023/11/06 00:16:59;;;;;;;3.28;0.90;;;;;;;10.46;48.89;99101.88;4970289;28;21227;-85
2023/11/06 00:19:28;;;;;;;2.55;1.10;;;;;;;10.46;48.97;99099.16;4981917;28;20057;-85
2023/11/06 00:21:57;;;;;;;3.75;0.90;;;;;;;10.46;48.71;99102.72;4993514;28;20054;-85
2023/11/06 00:24:26;;;;;;;4.63;0.77;;;;;;;10.49;48.98;99101.50;4993231;28;20209;-83
2023/11/06 00:26:55;;;;;;;2.95;0.90;;;;;;;10.50;48.96;99108.69;4996524;28;20050;-83
2023/11/06 00:29:23;;;;;;;2.78;0.90;;;;;;;10.50;48.77;99097.75;4990838;28;20054;-85
2023/11/06 00:31:51;;;;;;;2.35;0.95;;;;;;;10.50;48.72;99112.28;4979123;28;20129;-84
2023/11/06 00:34:19;;;;;;;3.40;0.98;;;;;;;10.51;48.95;99105.78;4984149;28;20399;-85
2023/11/06 00:36:47;;;;;;;2.00;0.75;;;;;;;10.52;48.61;99112.09;4998093;28;20061;-85
2023/11/06 00:39:15;;;;;;;2.55;0.80;;;;;;;10.51;49.14;99107.66;4997396;28;20042;-86
2023/11/06 00:41:43;;;;;;;2.28;0.80;;;;;;;10.50;48.71;99114.16;4999070;28;20101;-83
2023/11/06 00:44:13;;;;;;;3.05;0.90;;;;;;;10.53;48.58;99124.75;4999834;28;20058;-85
2023/11/06 00:46:41;;;;;;;3.47;0.85;;;;;;;10.54;49.14;99127.34;4994992;28;20057;-84
2023/11/06 00:49:10;;;;;;;2.40;1.08;;;;;;;10.54;48.56;99130.09;4999816;28;20054;-85
2023/11/06 00:51:38;;;;;;;1.70;0.70;;;;;;;10.55;49.00;99134.53;5002974;28;20077;-83
2023/11/06 00:54:06;;;;;;;1.77;0.80;;;;;;;10.57;49.06;99137.91;5031875;28;20046;-83
2023/11/06 00:56:34;;;;;;;2.17;0.80;;;;;;;10.57;49.09;99137.91;5011367;28;20068;-83
2023/11/06 00:59:02;;;;;;;2.28;1.10;;;;;;;10.58;48.58;99147.84;5000784;28;20054;-84
2023/11/06 01:01:32;;;;;;;4.07;1.15;;;;;;;10.60;48.68;99162.19;5011112;28;20050;-85
2023/11/06 01:04:01;;;;;;;3.05;0.80;;;;;;;10.59;48.73;99152.28;4990860;28;20566;-85
2023/11/06 01:06:29;;;;;;;2.38;0.70;;;;;;;10.60;48.66;99158.63;4993007;28;20056;-84
2023/11/06 01:08:57;;;;;;;1.95;0.90;;;;;;;10.59;48.80;99163.22;4995575;28;20164;-84
2023/11/06 01:11:25;;;;;;;3.13;1.00;;;;;;;10.59;48.67;99165.97;4992536;28;20039;-84
2023/11/06 01:13:53;;;;;;;3.20;0.80;;;;;;;10.59;48.35;99163.22;5000562;28;20046;-84
2023/11/06 01:16:22;;;;;;;2.88;0.80;;;;;;;10.60;48.80;99164.94;5001997;28;20057;-83
2023/11/06 01:18:52;;;;;;;4.03;0.93;;;;;;;10.62;48.38;99170.25;5018091;28;20073;-83
2023/11/06 01:21:20;;;;;;;2.45;0.88;;;;;;;10.60;48.55;99164.09;4999159;28;20054;-83
2023/11/06 01:23:48;;;;;;;3.50;1.00;;;;;;;10.62;48.60;99166.66;4994410;28;20129;-83
2023/11/06 01:26:16;;;;;;;2.67;1.02;;;;;;;10.60;48.39;99173.16;4989832;28;20514;-84
2023/11/06 01:28:44;;;;;;;3.40;0.98;;;;;;;10.62;48.73;99174.84;4993705;28;20611;-83
2023/11/06 01:31:12;;;;;;;4.10;0.85;;;;;;;10.63;48.72;99165.63;4989839;28;20053;-84
2023/11/06 01:33:40;;;;;;;2.58;0.80;;;;;;;10.63;48.17;99188.38;4994317;28;20406;-83
2023/11/06 01:36:10;;;;;;;2.38;0.73;;;;;;;10.64;48.77;99181.00;4987674;28;20475;-83
2023/11/06 01:38:38;;;;;;;2.78;0.77;;;;;;;10.61;48.36;99179.47;5002732;28;20663;-84
2023/11/06 01:41:07;;;;;;;4.35;1.00;;;;;;;10.63;48.32;99182.03;4998083;28;20558;-84
2023/11/06 01:43:35;;;;;;;1.98;1.00;;;;;;;10.63;48.69;99179.31;5012677;28;20052;-83
2023/11/06 01:46:05;;;;;;;2.95;0.70;;;;;;;10.64;48.21;99183.75;5016295;28;20716;-85
2023/11/06 01:48:33;;;;;;;2.35;1.00;;;;;;;10.63;48.61;99182.03;5011085;28;20646;-83
2023/11/06 01:51:01;;;;;;;3.97;1.17;;;;;;;10.62;48.19;99183.06;4993603;28;20086;-86
2023/11/06 01:53:31;;;;;;;3.50;1.05;;;;;;;10.66;48.59;99187.13;4993674;28;20422;-84
2023/11/06 01:56:00;;;;;;;4.10;0.95;;;;;;;10.63;48.53;99185.63;4995332;28;20054;-86
2023/11/06 01:58:29;;;;;;;4.13;0.88;;;;;;;10.63;47.98;99182.91;4991942;28;20046;-86
2023/11/06 02:00:57;;;;;;;3.60;0.98;;;;;;;10.62;48.11;99196.75;4987850;28;20590;-86
2023/11/06 02:03:26;;;;;;;2.35;1.13;;;;;;;10.64;48.21;99197.44;4994217;28;20073;-85
2023/11/06 02:05:55;;;;;;;3.55;0.93;;;;;;;10.61;48.08;99195.88;4987678;28;20596;-84
2023/11/06 02:08:23;;;;;;;4.05;0.80;;;;;;;10.62;48.37;99196.75;4987305;28;20425;-85
2023/11/06 02:10:52;;;;;;;2.45;0.85;;;;;;;10.62;48.19;99207.69;4989494;28;20474;-86
2023/11/06 02:13:22;;;;;;;2.60;0.80;;;;;;;10.60;47.91;99216.91;4991401;28;20088;-85
2023/11/06 02:15:51;;;;;;;2.95;1.25;;;;;;;10.62;48.05;99229.56;4990448;28;20077;-84
2023/11/06 02:18:21;;;;;;;3.70;1.00;;;;;;;10.60;48.41;99216.91;4992345;28;20177;-86
2023/11/06 02:20:54;;;;;;;1.30;0.70;;;;;;;10.60;48.14;99224.28;5008997;28;20046;-86
2023/11/06 02:23:25;;;;;;;2.92;0.98;;;;;;;10.61;47.91;99217.78;4991672;28;20042;-85
2023/11/06 02:25:53;;;;;;;1.48;0.77;;;;;;;10.56;48.13;99226.50;4990545;28;20166;-84
2023/11/06 02:28:21;;;;;;;4.00;0.98;;;;;;;10.57;47.89;99233.66;5009825;28;20168;-84
2023/11/06 02:30:52;;;;;;;3.55;0.90;;;;;;;10.56;48.44;99225.66;5010130;28;20042;-84
2023/11/06 02:33:20;;;;;;;2.05;0.80;;;;;;;10.58;48.22;99242.72;4998329;28;20567;-83
2023/11/06 02:35:48;;;;;;;2.92;1.17;;;;;;;10.56;48.04;99244.81;5014679;28;20046;-84
2023/11/06 02:38:17;;;;;;;3.92;1.00;;;;;;;10.55;48.08;99234.88;4995638;28;20120;-84
2023/11/06 02:40:47;;;;;;;1.92;0.80;;;;;;;10.57;47.55;99254.69;4993712;28;20061;-84
2023/11/06 02:43:15;;;;;;;1.55;0.75;;;;;;;10.53;47.85;99247.84;4992131;28;20105;-85
2023/11/06 02:45:44;;;;;;;2.92;0.90;;;;;;;10.50;48.12;99240.84;4993982;28;20057;-84
2023/11/06 02:48:12;;;;;;;2.25;0.90;;;;;;;10.51;48.24;99252.63;5000778;28;20056;-84
2023/11/06 02:50:40;;;;;;;2.35;0.90;;;;;;;10.49;48.39;99262.88;4994563;28;20187;-86
2023/11/06 02:53:08;;;;;;;1.88;0.77;;;;;;;10.48;47.82;99259.28;5004352;28;20064;-85
2023/11/06 02:55:37;;;;;;;1.50;0.80;;;;;;;10.49;48.21;99279.28;5003971;28;20081;-86
2023/11/06 02:58:06;;;;;;;2.38;0.80;;;;;;;10.48;48.04;99274.88;5002157;28;20081;-86
2023/11/06 03:00:34;;;;;;;2.83;0.80;;;;;;;10.44;48.16;99268.88;5001645;28;20046;-87
2023/11/06 03:03:02;;;;;;;2.85;0.90;;;;;;;10.45;48.49;99278.81;5001298;28;20061;-85
2023/11/06 03:05:31;;;;;;;3.10;0.90;;;;;;;10.45;48.07;99284.28;5021193;28;20522;-84
2023/11/06 03:08:00;;;;;;;2.20;0.85;;;;;;;10.41;48.10;99280.16;5000226;28;20057;-84
2023/11/06 03:10:28;;;;;;;3.00;0.88;;;;;;;10.43;47.96;99288.19;4997251;28;20047;-85
2023/11/06 03:12:56;;;;;;;3.75;1.00;;;;;;;10.41;48.19;99291.09;4999089;28;20050;-86
2023/11/06 03:15:26;;;;;;;3.47;0.73;;;;;;;10.42;48.42;99290.06;4995841;28;20069;-89
2023/11/06 03:17:54;;;;;;;3.63;0.98;;;;;;;10.41;48.33;99306.66;5003546;28;20056;-83
2023/11/06 03:20:22;;;;;;;3.50;1.08;;;;;;;10.40;48.05;99313.16;5013125;28;20054;-82
2023/11/06 03:22:51;;;;;;;2.53;0.95;;;;;;;10.39;48.34;99314.19;5033519;28;20053;-82
2023/11/06 03:25:19;;;;;;;2.83;0.93;;;;;;;10.38;48.33;99316.06;5001568;28;20058;-85
2023/11/06 03:27:48;;;;;;;2.78;0.90;;;;;;;10.37;48.34;99317.09;4996656;28;20042;-85
2023/11/06 03:30:16;;;;;;;2.65;0.90;;;;;;;10.36;48.30;99329.06;4999333;28;20129;-86
2023/11/06 03:32:46;;;;;;;2.70;0.90;;;;;;;10.39;48.63;99333.34;5000239;28;20038;-86
2023/11/06 03:35:14;;;;;;;2.85;0.90;;;;;;;10.35;48.68;99334.69;4992688;28;20062;-85
2023/11/06 03:37:44;;;;;;;3.38;0.70;;;;;;;10.38;48.42;99339.81;4995630;28;20065;-86
2023/11/06 03:40:12;;;;;;;3.20;1.00;;;;;;;10.36;48.65;99341.88;4997549;28;20434;-86
2023/11/06 03:42:40;;;;;;;1.70;0.70;;;;;;;10.36;48.31;99347.34;5000138;28;20088;-85
2023/11/06 03:45:09;;;;;;;1.98;0.75;;;;;;;10.34;48.68;99361.19;5016108;28;20081;-84
2023/11/06 03:47:37;;;;;;;1.90;0.80;;;;;;;10.35;48.41;99365.63;5001334;28;20070;-83
2023/11/06 03:50:08;;;;;;;4.22;1.02;;;;;;;10.35;48.65;99365.63;4998735;28;20517;-84
2023/11/06 03:52:36;;;;;;;3.38;0.80;;;;;;;10.33;48.74;99366.81;4998507;28;20037;-84
2023/11/06 03:55:07;;;;;;;2.72;0.85;;;;;;;10.32;48.68;99365.94;4997302;28;20058;-84
2023/11/06 03:57:35;;;;;;;3.85;1.00;;;;;;;10.33;48.67;99367.66;4998286;28;20097;-86
2023/11/06 04:00:04;;;;;;;5.07;1.00;;;;;;;10.32;48.63;99376.88;5014774;28;20042;-85
2023/11/06 04:02:38;;;;;;;2.58;0.80;;;;;;;10.31;48.55;99386.13;4981985;28;20042;-83
2023/11/06 04:05:08;;;;;;;2.67;0.88;;;;;;;10.33;48.50;99389.53;4995182;28;20046;-84
2023/11/06 04:07:36;;;;;;;3.72;0.90;;;;;;;10.30;48.47;99389.91;4998299;28;20050;-83
2023/11/06 04:10:05;;;;;;;2.38;0.70;;;;;;;10.31;48.51;99391.63;5015533;28;20162;-84
2023/11/06 04:12:33;;;;;;;3.55;0.90;;;;;;;10.31;48.64;99398.97;4998772;28;20402;-83
2023/11/06 04:15:01;;;;;;;3.13;0.90;;;;;;;10.29;48.65;99401.84;5017424;28;20087;-83
2023/11/06 04:17:30;;;;;;;4.05;1.17;;;;;;;10.30;48.64;99398.09;4997552;28;20069;-84
2023/11/06 04:19:58;;;;;;;3.63;0.80;;;;;;;10.30;48.49;99402.72;4984507;28;20049;-83
2023/11/06 04:22:28;;;;;;;2.15;1.00;;;;;;;10.30;48.62;99403.56;4988726;28;20510;-83
2023/11/06 04:24:56;;;;;;;4.25;1.08;;;;;;;10.29;48.59;99411.94;4995366;28;21062;-83
2023/11/06 04:27:24;;;;;;;2.55;0.90;;;;;;;10.28;48.15;99407.47;4980794;28;20065;-84
2023/11/06 04:29:52;;;;;;;3.30;0.93;;;;;;;10.28;48.38;99418.41;4984812;28;20113;-85
2023/11/06 04:32:20;;;;;;;3.22;1.08;;;;;;;10.27;48.40;99417.56;5000655;28;20078;-83
2023/11/06 04:34:48;;;;;;;2.65;0.85;;;;;;;10.26;48.54;99418.59;5009089;28;20046;-85
2023/11/06 04:37:16;;;;;;;2.58;1.10;;;;;;;10.24;48.34;99415.16;4995986;28;20046;-84
2023/11/06 04:39:45;;;;;;;3.88;1.25;;;;;;;10.29;48.25;99428.34;4996537;28;20078;-86
2023/11/06 04:42:13;;;;;;;2.90;1.00;;;;;;;10.27;48.19;99430.38;4999093;28;20111;-82
2023/11/06 04:44:41;;;;;;;2.38;1.05;;;;;;;10.26;48.30;99429.53;4999294;28;20442;-82
2023/11/06 04:47:09;;;;;;;4.53;1.30;;;;;;;10.26;48.35;99432.25;5001207;28;20038;-83
2023/11/06 04:49:37;;;;;;;5.75;1.35;;;;;;;10.25;48.47;99433.28;5000694;28;20490;-84
2023/11/06 04:52:06;;;;;;;3.35;1.52;;;;;;;10.24;48.42;99432.41;5001592;28;20050;-85
2023/11/06 04:54:34;;;;;;;4.60;1.25;;;;;;;10.23;48.24;99438.91;5008220;28;20057;-85
2023/11/06 04:57:04;;;;;;;3.78;1.08;;;;;;;10.24;48.18;99439.75;5015906;28;20042;-83
2023/11/06 04:59:31;;;;;;;4.03;1.40;;;;;;;10.23;48.55;99441.63;5015155;28;20750;-84
2023/11/06 05:01:59;;;;;;;4.20;1.35;;;;;;;10.26;48.50;99440.47;5002957;28;20042;-84
2023/11/06 05:04:28;;;;;;;5.07;1.50;;;;;;;10.25;48.44;99446.94;5001981;28;20034;-84
2023/11/06 05:06:58;;;;;;;5.13;1.63;;;;;;;10.26;48.32;99451.41;5002277;28;20042;-83
2023/11/06 05:09:26;;;;;;;4.18;1.50;;;;;;;10.24;48.10;99453.44;5002123;28;20065;-84
2023/11/06 05:11:54;;;;;;;3.78;1.30;;;;;;;10.24;48.23;99447.97;4999906;28;20042;-84
2023/11/06 05:14:23;;;;;;;4.75;1.63;;;;;;;10.27;48.34;99455.84;5000253;28;20077;-84
2023/11/06 05:16:52;;;;;;;3.40;1.20;;;;;;;10.25;48.44;99468.81;4989718;28;20050;-84
2023/11/06 05:19:21;;;;;;;3.97;1.65;;;;;;;10.24;48.10;99467.97;4990562;28;20049;-84
2023/11/06 05:21:50;;;;;;;3.97;1.60;;;;;;;10.23;48.55;99463.50;5002375;28;20050;-84
2023/11/06 05:24:19;;;;;;;3.40;1.17;;;;;;;10.23;48.58;99468.16;5019393;28;20054;-84
2023/11/06 05:26:47;;;;;;;6.18;1.42;;;;;;;10.24;48.29;99473.44;4996464;28;20518;-83
2023/11/06 05:29:15;;;;;;;3.30;1.17;;;;;;;10.22;48.36;99478.22;5002748;28;20042;-84
2023/11/06 05:31:45;;;;;;;5.82;2.03;;;;;;;10.26;48.55;99480.63;5000333;28;20092;-83
2023/11/06 05:34:13;;;;;;;7.03;1.90;;;;;;;10.23;48.42;99485.38;5003880;28;20236;-84
2023/11/06 05:36:42;;;;;;;3.22;1.33;;;;;;;10.24;48.30;99497.19;5004998;28;20077;-84
2023/11/06 05:39:11;;;;;;;5.30;1.42;;;;;;;10.26;48.56;99503.34;5000449;28;20042;-84
2023/11/06 05:41:39;;;;;;;4.10;1.40;;;;;;;10.26;48.29;99503.34;5004172;28;20070;-84
2023/11/06 05:44:08;;;;;;;4.10;1.25;;;;;;;10.24;48.42;99510.84;5001962;28;20050;-85
2023/11/06 05:46:36;;;;;;;6.68;1.80;;;;;;;10.24;48.05;99508.97;4993002;28;20066;-84
2023/11/06 05:49:06;;;;;;;5.00;1.38;;;;;;;10.26;48.08;99514.28;4990002;28;20034;-84
2023/11/06 05:51:34;;;;;;;5.18;1.65;;;;;;;10.26;48.16;99522.50;5007027;28;20061;-84
2023/11/06 05:54:02;;;;;;;5.25;1.35;;;;;;;10.24;48.27;99521.78;5001717;28;20073;-83
2023/11/06 05:56:30;;;;;;;4.82;1.60;;;;;;;10.27;48.15;99537.03;5002702;28;20050;-84
2023/11/06 05:58:58;;;;;;;7.78;2.78;;;;;;;10.28;48.24;99536.88;5002736;28;20126;-85
2023/11/06 06:01:26;;;;;;;3.85;1.40;;;;;;;10.28;48.59;99549.69;5005559;28;20034;-84
2023/11/06 06:03:54;;;;;;;6.35;1.48;;;;;;;10.28;48.08;99544.19;5002405;28;20062;-85
2023/11/06 06:06:24;;;;;;;4.38;1.40;;;;;;;10.31;48.04;99552.09;4999998;28;20057;-85
2023/11/06 06:08:52;;;;;;;4.80;1.60;;;;;;;10.27;48.13;99551.56;5019501;28;20050;-84
2023/11/06 06:11:23;;;;;;;4.22;1.52;;;;;;;10.30;48.53;99553.09;4999049;28;20049;-85
2023/11/06 06:13:51;;;;;;;6.22;1.55;;;;;;;10.29;48.22;99546.78;4997053;28;20050;-84
2023/11/06 06:16:19;;;;;;;4.90;1.30;;;;;;;10.28;48.00;99546.94;4997242;28;20121;-86
2023/11/06 06:18:48;;;;;;;5.80;1.50;;;;;;;10.30;48.52;99556.69;4993198;28;20047;-84
2023/11/06 06:21:16;;;;;;;5.97;1.48;;;;;;;10.31;48.52;99561.16;4968909;28;20051;-87
2023/11/06 06:23:46;;;;;;;3.72;1.02;;;;;;;10.34;48.46;99557.22;4980079;28;20047;-82
2023/11/06 06:26:14;;;;;;;5.25;1.40;;;;;;;10.32;48.50;99557.38;4995421;28;20131;-84
2023/11/06 06:28:41;;;;;;;4.75;1.10;;;;;;;10.34;48.33;99557.22;5000569;28;20041;-83
2023/11/06 06:31:09;;;;;;;4.70;1.88;;;;;;;10.33;48.23;99572.75;5010062;28;20136;-83
2023/11/06 06:33:37;;;;;;;6.05;1.48;;;;;;;10.34;48.41;99573.63;5005391;28;20041;-82
2023/11/06 06:36:13;;;;;;;5.93;1.73;;;;;;;10.37;48.26;99565.09;5027276;28;20046;-82
2023/11/06 06:38:41;;;;;;;6.85;1.63;;;;;;;10.35;48.09;99576.19;4998416;28;20090;-84
2023/11/06 06:41:11;;;;;;;6.60;1.60;;;;;;;10.38;48.46;99585.97;4999598;28;20042;-82
2023/11/06 06:43:39;;;;;;;4.28;1.40;;;;;;;10.36;48.17;99586.13;5014156;28;20042;-82
2023/11/06 06:46:07;;;;;;;4.82;1.92;;;;;;;10.37;47.96;99587.84;4991337;28;20046;-83
2023/11/06 06:48:35;;;;;;;5.75;1.60;;;;;;;10.37;48.29;99589.72;5007930;28;20047;-82
2023/11/06 06:51:04;;;;;;;5.45;1.42;;;;;;;10.38;47.94;99603.22;4989278;28;20302;-83
2023/11/06 06:53:34;;;;;;;6.05;1.42;;;;;;;10.36;47.90;99597.06;4991598;28;20388;-83
2023/11/06 06:56:02;;;;;;;5.35;1.50;;;;;;;10.37;47.93;99600.66;4987201;28;20502;-82
2023/11/06 06:58:31;;;;;;;6.40;1.40;;;;;;;10.35;48.04;99606.28;4987804;28;20074;-83
2023/11/06 07:00:59;;;;;;;5.70;1.40;;;;;;;10.37;47.75;99611.59;4987379;28;20113;-83
2023/11/06 07:03:29;;;;;;;3.80;1.23;;;;;;;10.35;48.13;99606.28;4987952;28;20145;-83
2023/11/06 07:05:57;;;;;;;5.53;1.40;;;;;;;10.36;48.04;99627.16;4989647;28;20105;-83
2023/11/06 07:08:25;;;;;;;4.32;1.30;;;;;;;10.35;47.90;99624.56;4993137;28;20041;-84
2023/11/06 07:10:54;;;;;;;5.07;1.20;;;;;;;10.36;47.80;99626.28;4990591;28;20070;-84
2023/11/06 07:13:27;;;;;;;3.78;1.48;;;;;;;10.37;47.60;99637.06;4978698;28;20049;-84
2023/11/06 07:16:00;;;;;;;4.95;1.65;;;;;;;10.36;47.62;99638.09;4987971;28;20054;-84
2023/11/06 07:18:28;;;;;;;5.97;1.92;;;;;;;10.33;47.70;99637.53;4994367;28;20173;-84
2023/11/06 07:20:56;;;;;;;4.40;1.60;;;;;;;10.33;47.77;99641.13;4990366;28;20490;-85
2023/11/06 07:23:24;;;;;;;5.68;1.73;;;;;;;10.32;47.98;99650.34;4988803;28;20072;-84
2023/11/06 07:25:53;;;;;;;5.35;1.60;;;;;;;10.35;47.71;99646.44;4995191;28;20157;-85
2023/11/06 07:28:21;;;;;;;3.97;1.50;;;;;;;10.33;47.44;99654.81;4992066;28;20045;-85
2023/11/06 07:30:49;;;;;;;4.53;1.45;;;;;;;10.34;47.52;99664.72;4992043;28;20046;-83
2023/11/06 07:33:19;;;;;;;4.72;1.60;;;;;;;10.35;47.42;99668.31;4993899;28;20050;-84
2023/11/06 07:35:47;;;;;;;4.47;1.30;;;;;;;10.34;47.86;99656.53;4988044;28;20063;-83
2023/11/06 07:38:15;;;;;;;9.05;1.48;;;;;;;10.35;47.53;99668.31;4992430;28;20103;-88
2023/11/06 07:40:43;;;;;;;3.67;1.60;;;;;;;10.37;47.45;99663.56;4992641;28;20045;-86
2023/11/06 07:43:12;;;;;;;5.57;1.48;;;;;;;10.34;47.71;99670.19;4994993;28;20058;-86
2023/11/06 07:45:40;;;;;;;5.97;1.63;;;;;;;10.36;47.66;99679.09;4995298;28;20080;-86
2023/11/06 07:48:08;;;;;;;4.78;1.40;;;;;;;10.35;47.54;99673.78;4997930;28;20050;-85
2023/11/06 07:50:38;;;;;;;5.38;1.63;;;;;;;10.38;47.54;99676.22;4991070;28;20054;-85
2023/11/06 07:53:07;;;;;;;4.13;1.55;;;;;;;10.37;47.35;99683.56;4989211;28;20046;-87
2023/11/06 07:55:35;;;;;;;5.32;1.42;;;;;;;10.37;47.26;99682.69;4989107;28;20673;-86
2023/11/06 07:58:03;;;;;;;4.40;1.42;;;;;;;10.40;47.35;99690.59;4989495;28;20104;-86
2023/11/06 08:00:31;;;;;;;5.05;1.60;;;;;;;10.39;47.10;99694.34;4994105;28;20537;-87
2023/11/06 08:03:13;;;;;;;5.50;1.85;;;;;;;10.38;47.33;99684.41;4989420;28;20706;-86
2023/11/06 08:05:43;;;;;;;3.80;1.52;;;;;;;10.42;47.03;99681.19;4995842;28;20065;-84
2023/11/06 08:08:11;;;;;;;5.70;1.45;;;;;;;10.43;47.48;99693.84;5012437;28;20149;-83
2023/11/06 08:10:40;;;;;;;5.60;1.65;;;;;;;10.43;47.20;99688.38;5001914;28;20062;-84
2023/11/06 08:13:08;;;;;;;5.50;1.90;;;;;;;10.45;47.39;99690.94;5007421;28;20510;-83
2023/11/06 08:15:36;;;;;;;4.63;1.27;;;;;;;10.46;47.32;99699.00;4985420;28;20506;-83
2023/11/06 08:18:05;;;;;;;4.75;1.50;;;;;;;10.49;47.39;99703.28;4990273;28;20050;-84
2023/11/06 08:20:33;;;;;;;3.75;1.20;;;;;;;10.50;46.97;99710.47;4989681;28;20609;-83
2023/11/06 08:23:03;;;;;;;3.75;1.33;;;;;;;10.53;47.24;99700.09;4988394;28;21310;-82
2023/11/06 08:25:31;;;;;;;3.90;1.20;;;;;;;10.52;47.42;99697.50;4987447;28;20581;-85
2023/11/06 08:28:00;;;;;;;3.17;1.10;;;;;;;10.56;47.15;99709.88;5008410;28;20046;-85
2023/11/06 08:30:28;;;;;;;6.35;1.17;;;;;;;10.60;47.04;99712.09;4985140;28;20055;-85
2023/11/06 08:32:56;;;;;;;4.07;1.20;;;;;;;10.61;46.88;99707.50;4989273;28;20470;-86
2023/11/06 08:35:24;;;;;;;2.88;1.10;;;;;;;10.64;46.84;99709.91;4991382;28;20047;-85
2023/11/06 08:37:52;;;;;;;2.75;0.90;;;;;;;10.69;47.07;99721.22;5008563;28;20069;-86
2023/11/06 08:40:22;;;;;;;4.15;1.40;;;;;;;10.73;46.85;99724.50;4997359;28;20181;-86
2023/11/06 08:42:50;;;;;;;3.67;1.10;;;;;;;10.73;47.57;99719.84;4996151;28;20054;-81
2023/11/06 08:45:18;;;;;;;4.47;1.10;;;;;;;10.77;47.67;99721.25;4989824;28;20057;-81
2023/11/06 08:47:46;;;;;;;5.15;1.13;;;;;;;10.82;47.44;99720.75;4993016;28;20565;-81
2023/11/06 08:50:14;;;;;;;5.00;1.65;;;;;;;10.87;47.62;99732.94;4991440;28;20110;-81
2023/11/06 08:52:42;;;;;;;5.00;1.40;;;;;;;10.91;47.78;99723.38;4990430;28;20096;-82
2023/11/06 08:55:10;;;;;;;4.72;1.20;;;;;;;10.99;47.52;99728.88;4994540;28;20078;-81
2023/11/06 08:57:42;;;;;;;3.80;0.95;;;;;;;11.06;47.30;99731.81;5007650;28;20053;-83
2023/11/06 09:00:14;;;;;;;2.67;0.80;;;;;;;11.08;46.98;99727.03;4997071;28;20398;-85
2023/11/06 09:02:42;;;;;;;5.57;1.50;;;;;;;11.14;46.50;99729.09;4993068;28;20105;-85
2023/11/06 09:05:12;;;;;;;3.95;1.00;;;;;;;11.18;46.24;99735.97;4992474;28;20422;-85
2023/11/06 09:07:40;;;;;;;4.30;1.30;;;;;;;11.21;46.55;99734.81;4994232;28;20053;-85
2023/11/06 09:10:24;;;;;;;6.35;1.23;;;;;;;11.27;45.74;99743.22;5009149;28;20046;-86
2023/11/06 09:13:22;;;;;;;4.63;1.15;;;;;;;11.28;46.35;99739.44;4976944;28;20132;-84
2023/11/06 09:15:55;;;;;;;4.60;1.15;;;;;;;11.30;46.43;99750.25;4977451;28;20061;-86
2023/11/06 09:18:24;;;;;;;6.57;1.40;;;;;;;11.29;45.84;99760.34;4993056;28;20047;-85
2023/11/06 09:20:54;;;;;;;4.43;1.25;;;;;;;11.29;46.14;99752.13;5011971;28;20074;-85
2023/11/06 09:23:22;;;;;;;4.93;1.30;;;;;;;11.31;46.00;99755.53;4995367;28;20620;-86
2023/11/06 09:25:50;;;;;;;2.53;1.10;;;;;;;11.33;45.47;99747.16;4997320;28;20053;-85
2023/11/06 09:28:19;;;;;;;4.30;1.35;;;;;;;11.33;45.33;99737.06;4992852;28;20141;-85
2023/11/06 09:30:48;;;;;;;3.13;0.80;;;;;;;11.33;45.77;99738.94;4987398;28;20060;-85
2023/11/06 09:33:16;;;;;;;3.42;1.20;;;;;;;11.32;45.61;99749.03;4992953;28;20078;-85
2023/11/06 09:35:45;;;;;;;5.95;1.25;;;;;;;11.32;45.29;99742.69;4987767;28;20146;-86
2023/11/06 09:38:14;;;;;;;6.00;1.42;;;;;;;11.33;45.18;99755.38;5008589;28;20064;-85
2023/11/06 09:40:43;;;;;;;2.78;0.95;;;;;;;11.34;44.91;99744.25;4994052;28;20049;-85
2023/11/06 09:43:11;;;;;;;3.55;1.15;;;;;;;11.31;45.49;99752.78;4999186;28;20043;-82
2023/11/06 09:45:41;;;;;;;3.28;1.00;;;;;;;11.34;45.30;99757.94;5006354;28;20132;-83
2023/11/06 09:48:11;;;;;;;3.85;1.25;;;;;;;11.31;44.78;99755.53;5013769;28;20046;-82
2023/11/06 09:50:42;;;;;;;4.18;1.20;;;;;;;11.34;44.59;99752.47;4991517;28;20046;-85
2023/11/06 09:53:11;;;;;;;3.45;1.23;;;;;;;11.32;45.18;99761.88;4989887;28;20048;-83
2023/11/06 09:55:42;;;;;;;4.13;1.60;;;;;;;11.34;45.38;99751.59;4986751;28;20064;-82
2023/11/06 09:58:12;;;;;;;3.80;1.30;;;;;;;11.35;45.45;99747.84;4987386;28;20057;-84
2023/11/06 10:00:43;;;;;;;6.03;1.60;;;;;;;11.37;45.32;99767.72;4999154;28;20077;-83
2023/11/06 10:03:11;;;;;;;5.68;1.83;;;;;;;11.36;45.46;99755.91;4990574;28;20489;-83
2023/11/06 10:05:39;;;;;;;3.63;1.23;;;;;;;11.39;45.35;99776.63;4995441;28;20059;-83
2023/11/06 10:08:08;;;;;;;6.25;1.40;;;;;;;11.43;45.34;99763.47;5000111;28;20043;-83
2023/11/06 10:10:38;;;;;;;5.10;1.58;;;;;;;11.44;45.21;99771.50;5012277;28;20521;-85
2023/11/06 10:13:08;;;;;;;3.95;1.20;;;;;;;11.46;45.38;99765.88;4997848;28;20042;-84
2023/11/06 10:15:38;;;;;;;3.92;1.30;;;;;;;11.49;45.32;99763.63;5013515;28;20078;-83
2023/11/06 10:18:15;;;;;;;4.63;1.40;;;;;;;11.57;44.45;99769.13;4978114;28;20446;-83
2023/11/06 10:20:45;;;;;;;4.50;1.27;;;;;;;11.58;45.39;99767.25;4972612;28;20063;-82
2023/11/06 10:23:22;;;;;;;3.80;1.38;;;;;;;11.66;44.48;99767.31;4991085;28;20046;-84
2023/11/06 10:25:52;;;;;;;4.28;1.17;;;;;;;11.69;45.54;99762.38;4990296;28;20046;-84
2023/11/06 10:28:21;;;;;;;3.85;1.05;;;;;;;11.77;45.19;99769.75;4991252;28;20136;-83
2023/11/06 10:30:51;;;;;;;4.78;1.30;;;;;;;11.83;45.43;99776.44;4988112;28;20494;-84
2023/11/06 10:33:21;;;;;;;3.65;1.20;;;;;;;11.91;45.52;99766.34;4993644;28;20218;-84
2023/11/06 10:35:51;;;;;;;3.78;1.10;;;;;;;11.97;45.37;99765.63;4990435;28;20054;-85
2023/11/06 10:38:29;;;;;;;4.13;1.50;;;;;;;12.08;44.33;99770.81;4992881;28;20426;-84
2023/11/06 10:40:58;;;;;;;5.07;1.27;;;;;;;12.10;45.43;99768.75;4991779;28;20049;-82
2023/11/06 10:43:25;;;;;;;3.95;1.20;;;;;;;12.20;45.29;99751.28;4992819;28;20038;-84
2023/11/06 10:45:55;;;;;;;5.30;1.50;;;;;;;12.29;45.37;99759.34;4990728;28;20137;-85
2023/11/06 10:48:33;;;;;;;2.70;1.00;;;;;;;12.40;44.12;99764.44;4992319;28;20053;-85
2023/11/06 10:51:05;;;;;;;3.20;0.90;;;;;;;12.47;44.74;99764.59;4991618;28;20241;-83
2023/11/06 10:53:36;;;;;;;3.25;1.00;;;;;;;12.57;44.73;99772.66;4989299;28;20129;-85
2023/11/06 10:56:07;;;;;;;5.33;1.77;;;;;;;12.60;44.80;99769.59;5006982;28;20050;-85
2023/11/06 10:58:38;;;;;;;3.17;0.98;;;;;;;12.67;44.42;99770.63;4993637;28;20046;-84
2023/11/06 11:01:09;;;;;;;4.00;1.00;;;;;;;12.74;44.10;99768.91;4994861;28;20060;-84
2023/11/06 11:03:40;;;;;;;1.98;0.90;;;;;;;12.80;44.02;99768.19;4993225;28;20049;-83
2023/11/06 11:06:09;;;;;;;4.75;1.08;;;;;;;12.85;44.23;99777.63;4992185;28;20042;-83
2023/11/06 11:08:38;;;;;;;2.78;0.90;;;;;;;12.90;43.93;99773.50;4986415;28;21196;-83
2023/11/06 11:11:09;;;;;;;2.63;0.80;;;;;;;12.95;43.87;99774.69;4995129;28;20061;-82
2023/11/06 11:13:42;;;;;;;2.83;0.90;;;;;;;13.00;43.66;99779.66;4999184;28;20104;-83
2023/11/06 11:16:37;;;;;;;2.33;0.87;;;;;;;13.02;42.57;99781.19;4998184;28;20051;-83
2023/11/06 11:19:24;;;;;;;3.47;1.20;;;;;;;13.04;42.43;99776.34;5015066;28;20049;-83
2023/11/06 11:22:08;;;;;;;3.95;0.90;;;;;;;13.07;42.75;99778.75;5004831;28;20114;-81
2023/11/06 11:24:53;;;;;;;3.28;0.80;;;;;;;13.09;42.10;99784.94;5006693;28;20066;-83
2023/11/06 11:27:22;;;;;;;2.28;0.85;;;;;;;13.09;43.01;99781.34;5014625;28;20053;-82
2023/11/06 11:30:11;;;;;;;2.83;0.93;;;;;;;13.09;42.02;99793.19;4989399;28;20656;-83
2023/11/06 11:32:49;;;;;;;3.05;0.70;;;;;;;13.09;42.16;99790.44;4988250;28;20194;-82
2023/11/06 11:36:01;;;;;;;4.65;0.90;;;;;;;13.08;41.63;99798.84;4987208;28;20053;-81
2023/11/06 11:38:36;;;;;;;1.73;0.50;;;;;;;13.06;42.37;99792.66;4991074;28;20050;-82
2023/11/06 11:41:14;;;;;;;1.70;0.70;;;;;;;13.06;41.39;99795.41;4984734;28;20125;-82
2023/11/06 11:43:46;;;;;;;2.50;0.75;;;;;;;13.02;42.32;99800.41;4985895;28;20081;-82
2023/11/06 11:46:57;;;;;;;1.58;0.50;;;;;;;12.94;41.64;99794.09;4985567;28;20125;-83